sensor_id;sensor_type;location;lat;lon;timestamp;P1;durP1;ratioP1;P2;durP2;ratioP2
14708;SDS011;7445;50.774;4.944;2022-12-28T07:46:44;7.77;;;4.87;;
14708;SDS011;7445;50.774;4.944;2022-12-28T07:49:10;6.17;;;4.77;;
14708;SDS011;7445;50.774;4.944;2022-12-28T07:51:37;10.77;;;5.77;;
14708;SDS011;7445;50.774;4.944;2022-12-28T07:54:06;6.87;;;4.63;;
14708;SDS011;7445;50.774;4.944;2022-12-28T07:56:41;5.47;;;4.93;;
14708;SDS011;7445;50.774;4.944;2022-12-28T07:59:08;6.50;;;5.47;;
14708;SDS011;7445;50.774;4.944;2022-12-28T08:04:49;6.60;;;5.87;;
14708;SDS011;7445;50.774;4.944;2022-12-28T08:10:32;8.20;;;5.90;;
14708;SDS011;7445;50.774;4.944;2022-12-28T08:15:52;6.50;;;5.80;;
14708;SDS011;7445;50.774;4.944;2022-12-28T08:18:21;5.67;;;5.17;;
14708;SDS011;7445;50.774;4.944;2022-12-28T08:20:46;7.43;;;5.70;;
14708;SDS011;7445;50.774;4.944;2022-12-28T08:23:12;8.50;;;6.10;;
14708;SDS011;7445;50.774;4.944;2022-12-28T08:25:38;8.30;;;6.53;;
14708;SDS011;7445;50.774;4.944;2022-12-28T08:28:04;6.67;;;5.33;;
14708;SDS011;7445;50.774;4.944;2022-12-28T08:30:30;8.07;;;5.67;;
14708;SDS011;7445;50.774;4.944;2022-12-28T08:32:56;9.40;;;5.13;;
14708;SDS011;7445;50.774;4.944;2022-12-28T08:35:25;8.77;;;5.97;;
14708;SDS011;7445;50.774;4.944;2022-12-28T08:37:53;6.30;;;5.70;;
14708;SDS011;7445;50.774;4.944;2022-12-28T08:40:19;6.50;;;5.23;;
14708;SDS011;7445;50.774;4.944;2022-12-28T08:42:46;6.83;;;4.87;;
14708;SDS011;7445;50.774;4.944;2022-12-28T08:45:13;7.03;;;5.30;;
14708;SDS011;7445;50.774;4.944;2022-12-28T08:47:38;6.17;;;5.40;;
14708;SDS011;7445;50.774;4.944;2022-12-28T08:50:04;7.50;;;5.23;;
14708;SDS011;7445;50.774;4.944;2022-12-28T08:52:30;4.83;;;4.17;;
14708;SDS011;7445;50.774;4.944;2022-12-28T08:54:56;5.73;;;4.40;;
14708;SDS011;7445;50.774;4.944;2022-12-28T08:57:21;5.83;;;4.77;;
14708;SDS011;7445;50.774;4.944;2022-12-28T08:59:50;6.83;;;5.10;;
14708;SDS011;7445;50.774;4.944;2022-12-28T09:02:18;8.43;;;4.70;;
14708;SDS011;7445;50.774;4.944;2022-12-28T09:04:44;5.10;;;4.60;;
14708;SDS011;7445;50.774;4.944;2022-12-28T09:07:09;9.30;;;4.43;;
14708;SDS011;7445;50.774;4.944;2022-12-28T09:09:37;7.73;;;5.50;;
14708;SDS011;7445;50.774;4.944;2022-12-28T09:12:03;5.27;;;4.77;;
14708;SDS011;7445;50.774;4.944;2022-12-28T09:14:28;5.40;;;4.47;;
14708;SDS011;7445;50.774;4.944;2022-12-28T09:16:54;6.87;;;4.90;;
14708;SDS011;7445;50.774;4.944;2022-12-28T09:19:20;5.87;;;4.00;;
14708;SDS011;7445;50.774;4.944;2022-12-28T09:21:46;6.23;;;3.80;;
14708;SDS011;7445;50.774;4.944;2022-12-28T09:24:13;5.20;;;4.67;;
14708;SDS011;7445;50.774;4.944;2022-12-28T09:26:39;4.67;;;4.17;;
14708;SDS011;7445;50.774;4.944;2022-12-28T09:29:05;5.90;;;4.60;;
14708;SDS011;7445;50.774;4.944;2022-12-28T09:31:33;6.97;;;4.23;;
14708;SDS011;7445;50.774;4.944;2022-12-28T09:34:04;5.73;;;4.43;;
14708;SDS011;7445;50.774;4.944;2022-12-28T09:36:32;8.13;;;4.60;;
14708;SDS011;7445;50.774;4.944;2022-12-28T09:38:59;5.47;;;4.30;;
14708;SDS011;7445;50.774;4.944;2022-12-28T09:47:16;10.77;;;4.13;;
14708;SDS011;7445;50.774;4.944;2022-12-28T09:49:43;4.87;;;3.67;;
14708;SDS011;7445;50.774;4.944;2022-12-28T09:52:29;4.00;;;3.43;;
14708;SDS011;7445;50.774;4.944;2022-12-28T09:55:16;8.03;;;4.50;;
14708;SDS011;7445;50.774;4.944;2022-12-28T09:57:52;3.20;;;3.00;;
14708;SDS011;7445;50.774;4.944;2022-12-28T10:02:52;5.17;;;2.93;;
14708;SDS011;7445;50.774;4.944;2022-12-28T10:05:23;3.23;;;2.80;;
14708;SDS011;7445;50.774;4.944;2022-12-28T10:07:50;5.43;;;3.07;;
14708;SDS011;7445;50.774;4.944;2022-12-28T10:10:17;4.03;;;3.30;;
14708;SDS011;7445;50.774;4.944;2022-12-28T10:12:46;4.77;;;3.03;;
14708;SDS011;7445;50.774;4.944;2022-12-28T10:15:14;8.40;;;2.40;;
14708;SDS011;7445;50.774;4.944;2022-12-28T10:17:41;7.33;;;3.37;;
14708;SDS011;7445;50.774;4.944;2022-12-28T10:20:13;7.50;;;3.90;;
14708;SDS011;7445;50.774;4.944;2022-12-28T10:22:41;5.37;;;2.37;;
14708;SDS011;7445;50.774;4.944;2022-12-28T10:25:19;2.93;;;2.63;;
14708;SDS011;7445;50.774;4.944;2022-12-28T10:27:46;4.00;;;2.90;;
14708;SDS011;7445;50.774;4.944;2022-12-28T10:30:23;3.40;;;3.00;;
14708;SDS011;7445;50.774;4.944;2022-12-28T10:35:23;10.40;;;2.80;;
14708;SDS011;7445;50.774;4.944;2022-12-28T10:38:01;3.50;;;2.20;;
14708;SDS011;7445;50.774;4.944;2022-12-28T10:40:35;3.83;;;2.57;;
14708;SDS011;7445;50.774;4.944;2022-12-28T10:43:03;4.97;;;2.57;;
14708;SDS011;7445;50.774;4.944;2022-12-28T10:45:34;7.47;;;5.90;;
14708;SDS011;7445;50.774;4.944;2022-12-28T10:48:07;4.83;;;2.63;;
14708;SDS011;7445;50.774;4.944;2022-12-28T10:50:55;2.40;;;2.20;;
14708;SDS011;7445;50.774;4.944;2022-12-28T10:58:47;7.27;;;2.20;;
14708;SDS011;7445;50.774;4.944;2022-12-28T11:01:22;2.07;;;1.93;;
14708;SDS011;7445;50.774;4.944;2022-12-28T11:03:58;7.37;;;2.33;;
14708;SDS011;7445;50.774;4.944;2022-12-28T11:06:33;7.07;;;2.90;;
14708;SDS011;7445;50.774;4.944;2022-12-28T11:11:45;2.47;;;2.27;;
14708;SDS011;7445;50.774;4.944;2022-12-28T11:14:14;4.10;;;2.10;;
14708;SDS011;7445;50.774;4.944;2022-12-28T11:17:19;2.67;;;2.17;;
14708;SDS011;7445;50.774;4.944;2022-12-28T11:20:05;4.30;;;2.60;;
14708;SDS011;7445;50.774;4.944;2022-12-28T11:22:37;5.80;;;2.53;;
14708;SDS011;7445;50.774;4.944;2022-12-28T11:25:03;5.43;;;2.30;;
14708;SDS011;7445;50.774;4.944;2022-12-28T11:27:32;7.53;;;2.80;;
14708;SDS011;7445;50.774;4.944;2022-12-28T11:29:58;7.17;;;3.53;;
14708;SDS011;7445;50.774;4.944;2022-12-28T11:32:25;3.37;;;2.80;;
14708;SDS011;7445;50.774;4.944;2022-12-28T11:34:57;2.83;;;2.30;;
14708;SDS011;7445;50.774;4.944;2022-12-28T11:37:24;6.83;;;3.00;;
14708;SDS011;7445;50.774;4.944;2022-12-28T11:39:50;7.47;;;2.73;;
14708;SDS011;7445;50.774;4.944;2022-12-28T11:45:04;6.07;;;2.70;;
14708;SDS011;7445;50.774;4.944;2022-12-28T11:47:36;7.43;;;3.70;;
14708;SDS011;7445;50.774;4.944;2022-12-28T11:53:19;5.03;;;2.40;;
14708;SDS011;7445;50.774;4.944;2022-12-28T11:55:55;2.40;;;2.20;;
14708;SDS011;7445;50.774;4.944;2022-12-28T12:00:56;3.57;;;2.47;;
14708;SDS011;7445;50.774;4.944;2022-12-28T12:14:22;5.37;;;2.90;;
14708;SDS011;7445;50.774;4.944;2022-12-28T12:16:56;3.80;;;1.97;;
14708;SDS011;7445;50.774;4.944;2022-12-28T12:19:30;5.70;;;2.70;;
14708;SDS011;7445;50.774;4.944;2022-12-28T12:22:01;7.23;;;2.50;;
14708;SDS011;7445;50.774;4.944;2022-12-28T12:25:31;5.07;;;1.90;;
14708;SDS011;7445;50.774;4.944;2022-12-28T12:30:13;8.30;;;2.87;;
14708;SDS011;7445;50.774;4.944;2022-12-28T12:33:00;9.53;;;3.60;;
14708;SDS011;7445;50.774;4.944;2022-12-28T12:35:30;3.43;;;2.80;;
14708;SDS011;7445;50.774;4.944;2022-12-28T12:46:57;3.00;;;2.73;;
14708;SDS011;7445;50.774;4.944;2022-12-28T12:55:03;3.90;;;2.53;;
14708;SDS011;7445;50.774;4.944;2022-12-28T13:02:49;3.53;;;2.43;;
14708;SDS011;7445;50.774;4.944;2022-12-28T13:05:25;5.63;;;2.63;;
14708;SDS011;7445;50.774;4.944;2022-12-28T13:07:53;6.70;;;2.70;;
14708;SDS011;7445;50.774;4.944;2022-12-28T13:10:42;6.60;;;3.30;;
14708;SDS011;7445;50.774;4.944;2022-12-28T13:13:12;5.00;;;2.73;;
14708;SDS011;7445;50.774;4.944;2022-12-28T13:15:46;5.10;;;2.47;;
14708;SDS011;7445;50.774;4.944;2022-12-28T13:18:17;4.87;;;2.87;;
14708;SDS011;7445;50.774;4.944;2022-12-28T13:20:53;5.77;;;3.13;;
14708;SDS011;7445;50.774;4.944;2022-12-28T13:23:21;9.17;;;3.17;;
14708;SDS011;7445;50.774;4.944;2022-12-28T13:25:48;6.17;;;3.00;;
14708;SDS011;7445;50.774;4.944;2022-12-28T13:28:26;8.93;;;3.00;;
14708;SDS011;7445;50.774;4.944;2022-12-28T13:31:09;3.60;;;2.77;;
14708;SDS011;7445;50.774;4.944;2022-12-28T13:34:23;5.33;;;2.80;;
14708;SDS011;7445;50.774;4.944;2022-12-28T13:37:19;3.30;;;3.10;;
14708;SDS011;7445;50.774;4.944;2022-12-28T13:39:49;7.47;;;2.80;;
14708;SDS011;7445;50.774;4.944;2022-12-28T13:47:52;5.60;;;3.03;;
14708;SDS011;7445;50.774;4.944;2022-12-28T13:50:22;4.47;;;2.60;;
14708;SDS011;7445;50.774;4.944;2022-12-28T13:53:10;6.37;;;3.73;;
14708;SDS011;7445;50.774;4.944;2022-12-28T13:56:01;10.03;;;3.40;;
14708;SDS011;7445;50.774;4.944;2022-12-28T13:58:32;7.30;;;2.70;;
14708;SDS011;7445;50.774;4.944;2022-12-28T14:01:09;5.60;;;3.17;;
14708;SDS011;7445;50.774;4.944;2022-12-28T14:04:24;6.77;;;3.63;;
14708;SDS011;7445;50.774;4.944;2022-12-28T14:10:22;2.53;;;2.33;;
14708;SDS011;7445;50.774;4.944;2022-12-28T14:13:02;4.67;;;3.07;;
14708;SDS011;7445;50.774;4.944;2022-12-28T14:15:38;5.90;;;3.27;;
14708;SDS011;7445;50.774;4.944;2022-12-28T14:20:47;3.37;;;2.30;;
14708;SDS011;7445;50.774;4.944;2022-12-28T14:23:37;4.03;;;3.03;;
14708;SDS011;7445;50.774;4.944;2022-12-28T14:26:19;6.33;;;2.67;;
14708;SDS011;7445;50.774;4.944;2022-12-28T14:28:51;3.07;;;2.50;;
14708;SDS011;7445;50.774;4.944;2022-12-28T14:34:39;5.60;;;2.63;;
14708;SDS011;7445;50.774;4.944;2022-12-28T14:37:27;3.63;;;2.07;;
14708;SDS011;7445;50.774;4.944;2022-12-28T14:40:00;3.50;;;2.53;;
14708;SDS011;7445;50.774;4.944;2022-12-28T14:42:37;5.10;;;2.90;;
14708;SDS011;7445;50.774;4.944;2022-12-28T14:48:34;5.10;;;2.90;;
14708;SDS011;7445;50.774;4.944;2022-12-28T14:53:41;8.90;;;3.07;;
14708;SDS011;7445;50.774;4.944;2022-12-28T14:56:10;4.00;;;3.03;;
14708;SDS011;7445;50.774;4.944;2022-12-28T15:01:38;4.13;;;2.10;;
14708;SDS011;7445;50.774;4.944;2022-12-28T15:07:34;7.80;;;3.60;;
14708;SDS011;7445;50.774;4.944;2022-12-28T15:12:56;8.00;;;4.10;;
14708;SDS011;7445;50.774;4.944;2022-12-28T15:15:28;8.73;;;2.87;;
14708;SDS011;7445;50.774;4.944;2022-12-28T15:18:05;5.13;;;3.47;;
14708;SDS011;7445;50.774;4.944;2022-12-28T15:21:16;3.57;;;2.50;;
14708;SDS011;7445;50.774;4.944;2022-12-28T15:23:48;12.17;;;3.80;;
14708;SDS011;7445;50.774;4.944;2022-12-28T15:26:18;5.57;;;3.50;;
14708;SDS011;7445;50.774;4.944;2022-12-28T15:28:48;6.60;;;3.37;;
14708;SDS011;7445;50.774;4.944;2022-12-28T15:31:18;2.80;;;2.50;;
14708;SDS011;7445;50.774;4.944;2022-12-28T15:33:47;5.30;;;3.07;;
14708;SDS011;7445;50.774;4.944;2022-12-28T15:36:14;5.70;;;3.63;;
14708;SDS011;7445;50.774;4.944;2022-12-28T15:38:47;4.80;;;4.00;;
14708;SDS011;7445;50.774;4.944;2022-12-28T15:41:18;7.07;;;3.70;;
14708;SDS011;7445;50.774;4.944;2022-12-28T15:44:08;7.20;;;4.03;;
14708;SDS011;7445;50.774;4.944;2022-12-28T15:46:35;6.80;;;4.13;;
14708;SDS011;7445;50.774;4.944;2022-12-28T15:52:07;6.20;;;3.53;;
14708;SDS011;7445;50.774;4.944;2022-12-28T15:54:48;3.43;;;3.07;;
14708;SDS011;7445;50.774;4.944;2022-12-28T15:57:14;3.57;;;3.20;;
14708;SDS011;7445;50.774;4.944;2022-12-28T15:59:42;9.73;;;4.10;;
14708;SDS011;7445;50.774;4.944;2022-12-28T16:02:08;6.27;;;3.97;;
14708;SDS011;7445;50.774;4.944;2022-12-28T16:05:03;5.43;;;3.47;;
14708;SDS011;7445;50.774;4.944;2022-12-28T16:08:07;3.70;;;3.10;;
14708;SDS011;7445;50.774;4.944;2022-12-28T16:10:51;6.53;;;3.43;;
14708;SDS011;7445;50.774;4.944;2022-12-28T16:13:21;3.97;;;3.23;;
14708;SDS011;7445;50.774;4.944;2022-12-28T16:15:47;5.07;;;3.13;;
14708;SDS011;7445;50.774;4.944;2022-12-28T16:18:27;3.10;;;2.90;;
14708;SDS011;7445;50.774;4.944;2022-12-28T16:21:02;4.23;;;2.57;;
14708;SDS011;7445;50.774;4.944;2022-12-28T16:23:32;4.97;;;3.20;;
14708;SDS011;7445;50.774;4.944;2022-12-28T16:26:07;5.87;;;3.07;;
14708;SDS011;7445;50.774;4.944;2022-12-28T16:28:34;4.17;;;2.87;;
14708;SDS011;7445;50.774;4.944;2022-12-28T16:34:05;7.43;;;3.40;;
14708;SDS011;7445;50.774;4.944;2022-12-28T16:36:35;2.63;;;2.37;;
14708;SDS011;7445;50.774;4.944;2022-12-28T16:39:03;4.80;;;2.73;;
14708;SDS011;7445;50.774;4.944;2022-12-28T16:41:30;6.67;;;3.43;;
14708;SDS011;7445;50.774;4.944;2022-12-28T16:44:07;2.77;;;2.17;;
14708;SDS011;7445;50.774;4.944;2022-12-28T16:46:41;3.50;;;2.37;;
14708;SDS011;7445;50.774;4.944;2022-12-28T16:49:08;4.33;;;2.80;;
14708;SDS011;7445;50.774;4.944;2022-12-28T16:51:38;4.80;;;2.67;;
14708;SDS011;7445;50.774;4.944;2022-12-28T16:54:06;2.97;;;2.67;;
14708;SDS011;7445;50.774;4.944;2022-12-28T16:56:33;2.67;;;2.47;;
14708;SDS011;7445;50.774;4.944;2022-12-28T16:59:15;4.37;;;2.50;;
14708;SDS011;7445;50.774;4.944;2022-12-28T17:01:49;3.85;;;2.80;;
14708;SDS011;7445;50.774;4.944;2022-12-28T17:04:16;3.07;;;2.27;;
14708;SDS011;7445;50.774;4.944;2022-12-28T17:06:42;5.13;;;2.23;;
14708;SDS011;7445;50.774;4.944;2022-12-28T17:09:17;3.70;;;2.65;;
14708;SDS011;7445;50.774;4.944;2022-12-28T17:12:13;6.20;;;2.50;;
14708;SDS011;7445;50.774;4.944;2022-12-28T17:14:47;3.20;;;2.63;;
14708;SDS011;7445;50.774;4.944;2022-12-28T17:17:12;5.33;;;2.80;;
14708;SDS011;7445;50.774;4.944;2022-12-28T17:19:38;3.27;;;2.03;;
14708;SDS011;7445;50.774;4.944;2022-12-28T17:22:03;4.30;;;2.50;;
14708;SDS011;7445;50.774;4.944;2022-12-28T17:24:30;11.17;;;8.40;;
14708;SDS011;7445;50.774;4.944;2022-12-28T17:26:56;101.27;;;79.17;;
14708;SDS011;7445;50.774;4.944;2022-12-28T17:29:22;92.37;;;67.07;;
14708;SDS011;7445;50.774;4.944;2022-12-28T17:31:48;40.30;;;30.00;;
14708;SDS011;7445;50.774;4.944;2022-12-28T17:34:13;33.73;;;29.97;;
14708;SDS011;7445;50.774;4.944;2022-12-28T17:36:41;10.73;;;8.67;;
14708;SDS011;7445;50.774;4.944;2022-12-28T17:39:13;7.27;;;4.87;;
14708;SDS011;7445;50.774;4.944;2022-12-28T17:41:39;8.63;;;6.33;;
14708;SDS011;7445;50.774;4.944;2022-12-28T17:44:05;7.50;;;6.70;;
14708;SDS011;7445;50.774;4.944;2022-12-28T17:46:32;6.77;;;6.07;;
14708;SDS011;7445;50.774;4.944;2022-12-28T17:49:05;3.87;;;3.47;;
14708;SDS011;7445;50.774;4.944;2022-12-28T17:51:31;10.37;;;6.70;;
14708;SDS011;7445;50.774;4.944;2022-12-28T17:53:57;3.67;;;3.13;;
14708;SDS011;7445;50.774;4.944;2022-12-28T17:56:23;7.33;;;4.27;;
14708;SDS011;7445;50.774;4.944;2022-12-28T17:58:52;3.60;;;3.13;;
14708;SDS011;7445;50.774;4.944;2022-12-28T18:01:19;3.40;;;2.83;;
14708;SDS011;7445;50.774;4.944;2022-12-28T18:03:45;3.83;;;3.30;;
14708;SDS011;7445;50.774;4.944;2022-12-28T18:06:11;6.13;;;3.90;;
14708;SDS011;7445;50.774;4.944;2022-12-28T18:08:36;5.47;;;4.97;;
14708;SDS011;7445;50.774;4.944;2022-12-28T18:11:02;4.03;;;3.50;;
14708;SDS011;7445;50.774;4.944;2022-12-28T18:13:28;4.90;;;4.50;;
14708;SDS011;7445;50.774;4.944;2022-12-28T18:15:54;4.00;;;3.63;;
14708;SDS011;7445;50.774;4.944;2022-12-28T18:18:20;7.70;;;3.93;;
14708;SDS011;7445;50.774;4.944;2022-12-28T18:20:56;5.70;;;5.10;;
14708;SDS011;7445;50.774;4.944;2022-12-28T18:23:23;3.97;;;3.67;;
14708;SDS011;7445;50.774;4.944;2022-12-28T18:25:50;6.70;;;5.00;;
14708;SDS011;7445;50.774;4.944;2022-12-28T18:28:16;4.43;;;4.03;;
14708;SDS011;7445;50.774;4.944;2022-12-28T18:30:41;4.07;;;3.77;;
14708;SDS011;7445;50.774;4.944;2022-12-28T18:33:07;5.17;;;4.67;;
14708;SDS011;7445;50.774;4.944;2022-12-28T18:35:33;3.97;;;3.67;;
14708;SDS011;7445;50.774;4.944;2022-12-28T18:40:40;3.70;;;3.43;;
14708;SDS011;7445;50.774;4.944;2022-12-28T18:43:16;3.97;;;3.67;;
14708;SDS011;7445;50.774;4.944;2022-12-28T18:45:42;4.53;;;3.43;;
14708;SDS011;7445;50.774;4.944;2022-12-28T18:48:07;6.53;;;4.20;;
14708;SDS011;7445;50.774;4.944;2022-12-28T18:50:33;4.43;;;4.07;;
14708;SDS011;7445;50.774;4.944;2022-12-28T18:53:02;3.80;;;3.43;;
14708;SDS011;7445;50.774;4.944;2022-12-28T18:55:29;3.77;;;3.37;;
14708;SDS011;7445;50.774;4.944;2022-12-28T18:57:55;2.87;;;2.67;;
14708;SDS011;7445;50.774;4.944;2022-12-28T19:00:20;3.87;;;3.50;;
14708;SDS011;7445;50.774;4.944;2022-12-28T19:02:50;4.10;;;3.80;;
14708;SDS011;7445;50.774;4.944;2022-12-28T19:05:23;4.20;;;3.80;;
14708;SDS011;7445;50.774;4.944;2022-12-28T19:08:02;3.87;;;3.57;;
14708;SDS011;7445;50.774;4.944;2022-12-28T19:10:28;4.17;;;3.63;;
14708;SDS011;7445;50.774;4.944;2022-12-28T19:15:23;4.10;;;3.70;;
14708;SDS011;7445;50.774;4.944;2022-12-28T19:17:49;5.23;;;4.73;;
14708;SDS011;7445;50.774;4.944;2022-12-28T19:20:14;3.83;;;3.53;;
14708;SDS011;7445;50.774;4.944;2022-12-28T19:22:42;3.90;;;3.60;;
14708;SDS011;7445;50.774;4.944;2022-12-28T19:25:15;4.10;;;3.70;;
14708;SDS011;7445;50.774;4.944;2022-12-28T19:27:40;4.37;;;3.50;;
14708;SDS011;7445;50.774;4.944;2022-12-28T19:32:59;3.97;;;3.67;;
14708;SDS011;7445;50.774;4.944;2022-12-28T19:36:06;3.70;;;3.40;;
14708;SDS011;7445;50.774;4.944;2022-12-28T19:38:32;4.27;;;3.97;;
14708;SDS011;7445;50.774;4.944;2022-12-28T19:41:01;6.17;;;5.10;;
14708;SDS011;7445;50.774;4.944;2022-12-28T19:43:29;4.97;;;4.57;;
14708;SDS011;7445;50.774;4.944;2022-12-28T19:46:05;5.13;;;4.70;;
14708;SDS011;7445;50.774;4.944;2022-12-28T19:48:34;5.40;;;4.80;;
14708;SDS011;7445;50.774;4.944;2022-12-28T19:51:00;5.93;;;5.13;;
14708;SDS011;7445;50.774;4.944;2022-12-28T19:53:26;5.13;;;4.17;;
14708;SDS011;7445;50.774;4.944;2022-12-28T19:55:56;5.00;;;4.60;;
14708;SDS011;7445;50.774;4.944;2022-12-28T19:58:23;3.80;;;3.50;;
14708;SDS011;7445;50.774;4.944;2022-12-28T20:00:49;6.70;;;4.77;;
14708;SDS011;7445;50.774;4.944;2022-12-28T20:03:16;5.17;;;4.77;;
14708;SDS011;7445;50.774;4.944;2022-12-28T20:05:41;4.50;;;4.10;;
14708;SDS011;7445;50.774;4.944;2022-12-28T20:08:08;5.50;;;3.97;;
14708;SDS011;7445;50.774;4.944;2022-12-28T20:10:34;4.80;;;4.40;;
14708;SDS011;7445;50.774;4.944;2022-12-28T20:13:00;4.40;;;4.00;;
14708;SDS011;7445;50.774;4.944;2022-12-28T20:15:26;7.80;;;3.70;;
14708;SDS011;7445;50.774;4.944;2022-12-28T20:17:51;4.50;;;4.20;;
14708;SDS011;7445;50.774;4.944;2022-12-28T20:20:17;3.93;;;3.63;;
14708;SDS011;7445;50.774;4.944;2022-12-28T20:22:43;5.03;;;4.00;;
14708;SDS011;7445;50.774;4.944;2022-12-28T20:25:08;4.63;;;4.23;;
14708;SDS011;7445;50.774;4.944;2022-12-28T20:27:34;5.27;;;4.80;;
14708;SDS011;7445;50.774;4.944;2022-12-28T20:30:02;4.43;;;4.03;;
14708;SDS011;7445;50.774;4.944;2022-12-28T20:32:28;3.53;;;3.23;;
14708;SDS011;7445;50.774;4.944;2022-12-28T20:34:53;4.80;;;4.23;;
14708;SDS011;7445;50.774;4.944;2022-12-28T20:37:19;8.67;;;4.10;;
14708;SDS011;7445;50.774;4.944;2022-12-28T20:39:45;4.20;;;3.90;;
14708;SDS011;7445;50.774;4.944;2022-12-28T20:42:11;4.63;;;4.20;;
14708;SDS011;7445;50.774;4.944;2022-12-28T20:44:56;4.97;;;4.43;;
14708;SDS011;7445;50.774;4.944;2022-12-28T20:47:25;5.30;;;4.77;;
14708;SDS011;7445;50.774;4.944;2022-12-28T20:49:50;5.30;;;4.80;;
14708;SDS011;7445;50.774;4.944;2022-12-28T20:52:16;5.43;;;4.97;;
14708;SDS011;7445;50.774;4.944;2022-12-28T20:54:42;5.87;;;5.37;;
14708;SDS011;7445;50.774;4.944;2022-12-28T20:57:07;5.53;;;5.07;;
14708;SDS011;7445;50.774;4.944;2022-12-28T20:59:33;5.40;;;4.90;;
14708;SDS011;7445;50.774;4.944;2022-12-28T21:01:59;5.73;;;5.13;;
14708;SDS011;7445;50.774;4.944;2022-12-28T21:04:24;5.03;;;4.53;;
14708;SDS011;7445;50.774;4.944;2022-12-28T21:06:52;4.97;;;4.57;;
14708;SDS011;7445;50.774;4.944;2022-12-28T21:09:18;4.43;;;4.13;;
14708;SDS011;7445;50.774;4.944;2022-12-28T21:11:45;5.50;;;4.30;;
14708;SDS011;7445;50.774;4.944;2022-12-28T21:14:11;5.07;;;3.90;;
14708;SDS011;7445;50.774;4.944;2022-12-28T21:16:37;5.07;;;4.47;;
14708;SDS011;7445;50.774;4.944;2022-12-28T21:19:03;3.63;;;3.30;;
14708;SDS011;7445;50.774;4.944;2022-12-28T21:21:28;5.57;;;4.33;;
14708;SDS011;7445;50.774;4.944;2022-12-28T21:23:54;6.13;;;5.10;;
14708;SDS011;7445;50.774;4.944;2022-12-28T21:26:20;7.37;;;5.50;;
14708;SDS011;7445;50.774;4.944;2022-12-28T21:28:46;8.03;;;7.23;;
14708;SDS011;7445;50.774;4.944;2022-12-28T21:31:12;16.77;;;13.13;;
14708;SDS011;7445;50.774;4.944;2022-12-28T21:33:40;9.33;;;6.70;;
14708;SDS011;7445;50.774;4.944;2022-12-28T21:36:07;5.30;;;4.90;;
14708;SDS011;7445;50.774;4.944;2022-12-28T21:38:40;6.10;;;5.60;;
14708;SDS011;7445;50.774;4.944;2022-12-28T21:41:08;5.90;;;5.33;;
14708;SDS011;7445;50.774;4.944;2022-12-28T21:43:39;5.93;;;5.33;;
14708;SDS011;7445;50.774;4.944;2022-12-28T21:46:06;5.60;;;5.13;;
14708;SDS011;7445;50.774;4.944;2022-12-28T21:48:34;6.43;;;5.93;;
14708;SDS011;7445;50.774;4.944;2022-12-28T21:51:01;6.07;;;5.57;;
14708;SDS011;7445;50.774;4.944;2022-12-28T21:53:51;7.67;;;7.07;;
14708;SDS011;7445;50.774;4.944;2022-12-28T21:56:17;6.93;;;5.17;;
14708;SDS011;7445;50.774;4.944;2022-12-28T21:58:47;7.67;;;7.03;;
14708;SDS011;7445;50.774;4.944;2022-12-28T22:01:15;5.70;;;5.20;;
14708;SDS011;7445;50.774;4.944;2022-12-28T22:03:59;7.03;;;5.37;;
14708;SDS011;7445;50.774;4.944;2022-12-28T22:06:43;5.70;;;5.30;;
14708;SDS011;7445;50.774;4.944;2022-12-28T22:09:09;5.33;;;4.93;;
14708;SDS011;7445;50.774;4.944;2022-12-28T22:11:56;5.53;;;5.03;;
14708;SDS011;7445;50.774;4.944;2022-12-28T22:14:40;5.40;;;4.97;;
14708;SDS011;7445;50.774;4.944;2022-12-28T22:17:06;6.17;;;4.70;;
14708;SDS011;7445;50.774;4.944;2022-12-28T22:19:32;8.10;;;4.67;;
14708;SDS011;7445;50.774;4.944;2022-12-28T22:21:57;7.33;;;5.10;;
14708;SDS011;7445;50.774;4.944;2022-12-28T22:24:23;5.67;;;5.17;;
14708;SDS011;7445;50.774;4.944;2022-12-28T22:27:10;5.63;;;5.20;;
14708;SDS011;7445;50.774;4.944;2022-12-28T22:29:45;5.78;;;5.28;;
14708;SDS011;7445;50.774;4.944;2022-12-28T22:32:15;7.15;;;6.10;;
14708;SDS011;7445;50.774;4.944;2022-12-28T22:35:06;4.83;;;4.43;;
14708;SDS011;7445;50.774;4.944;2022-12-28T22:37:47;5.50;;;5.03;;
14708;SDS011;7445;50.774;4.944;2022-12-28T22:40:13;5.37;;;4.90;;
14708;SDS011;7445;50.774;4.944;2022-12-28T22:42:42;5.20;;;4.60;;
14708;SDS011;7445;50.774;4.944;2022-12-28T22:45:17;5.30;;;4.80;;
